Data for 01/18/2015

Time Sea-Level Adjusted Pressure Absolute Pressure Temperature Relative Humidity Dew Point   
(mb) (inHg) (mb) (inHg) (C) (F) (%) (C) (F)
00:05 1017 30.03 846 24.98 2 35.5 46 -8.6 16.5
00:10 1017 30.03 846 24.98 2 35.6 45 -8.6 16.4
00:15 1017 30.03 846 24.98 2.4 36.2 45 -8.3 17.1
00:20 1017 30.03 846 24.98 2.5 36.5 48 -7.6 18.4
00:25 1017 30.03 846 24.98 2.4 36.4 48 -7.5 18.6
00:30 1017 30.03 846 24.98 2.5 36.5 49 -7 19.3
00:35 1017 30.03 846 24.98 2.7 36.9 48 -7.1 19.2
00:40 1017 30.03 846 24.98 2.7 36.9 49 -7.1 19.2
00:45 1017 30.03 846 24.98 2.8 37.1 47 -7.4 18.6
00:50 1017 30.03 846 24.98 2.9 37.3 48 -7 19.3
00:55 1017 30.03 846 24.98 3.1 37.5 49 -6.7 20
01:00 1017 30.03 846 24.98 3.1 37.6 50 -6.2 20.9
01:05 1017 30.03 846 24.98 3.1 37.6 53 -5.6 22
01:10 1017 30.03 846 24.98 3.6 38.4 52 -5.3 22.5
01:15 1017 30.03 846 24.98 4.2 39.5 51 -5.2 22.7
01:20 1017 30.03 846 24.98 4.3 39.7 51 -4.9 23.1
01:25 1016 30 846 24.98 4.4 39.8 51 -4.9 23.2
01:30 1017 30.03 846 24.98 4.4 39.8 51 -4.9 23.1
01:35 1017 30.03 846 24.98 4.3 39.8 51 -5 23
01:40 1016 30 846 24.98 4.3 39.8 51 -4.8 23.3
01:45 1016 30 846 24.98 4 39.2 53 -4.8 23.4
01:50 1016 30 846 24.98 3.5 38.4 54 -4.8 23.4
01:55 1016 30 845 24.95 3.4 38.1 54 -5 23
02:00 1016 30 845 24.95 3.5 38.3 54 -5.1 22.9
02:05 1016 30 845 24.95 3.8 38.8 56 -4.1 24.6
02:10 1016 30 845 24.95 3.9 39 54 -4.6 23.7
02:15 1016 30 845 24.95 3.8 38.9 54 -4.7 23.5
02:20 1016 30 845 24.95 3.9 39 53 -4.7 23.5
02:25 1016 30 845 24.95 4 39.2 52 -4.9 23.1
02:30 1016 30 845 24.95 4 39.3 53 -4.7 23.5
02:35 1016 30 845 24.95 4 39.2 54 -4.5 24
02:40 1016 30 845 24.95 3.9 39 56 -4.1 24.6
02:45 1016 30 845 24.95 3.7 38.6 54 -4.7 23.5
02:50 1016 30 845 24.95 3.5 38.2 56 -4.6 23.8
02:55 1016 30 845 24.95 3.4 38.1 55 -4.7 23.5
03:00 1016 30 845 24.95 3.3 37.9 55 -4.8 23.4
03:05 1016 30 845 24.95 3.1 37.6 59 -4.2 24.5
03:10 1016 30 845 24.95 3.2 37.8 58 -4.2 24.5
03:15 1016 30 845 24.95 3.1 37.6 57 -4.6 23.7
03:20 1016 30 845 24.95 2.9 37.2 59 -4.3 24.3
03:25 1016 30 845 24.95 2.9 37.1 59 -4.4 24.1
03:30 1016 30 845 24.95 2.7 36.9 59 -4.4 24.1
03:35 1016 30 845 24.95 2.9 37.2 59 -4.3 24.2
03:40 1016 30 845 24.95 3.1 37.5 59 -4.3 24.3
03:45 1016 30 845 24.95 3 37.3 59 -4.2 24.4
03:50 1016 30 845 24.95 3 37.4 58 -4.5 23.9
03:55 1016 30 845 24.95 3.2 37.8 58 -4.3 24.3
04:00 1016 30 845 24.95 3.1 37.5 59 -4.1 24.6
04:05 1016 30 845 24.95 2.9 37.2 61 -3.9 25
04:10 1016 30 845 24.95 2.9 37.2 61 -3.9 24.9
04:15 1016 30 845 24.95 2.8 37.1 61 -4 24.8
04:20 1016 30 845 24.95 2.8 37.1 61 -4 24.7
04:25 1016 30 845 24.95 3.2 37.7 60 -3.8 25.1
04:30 1016 30 845 24.95 3.1 37.6 60 -3.9 25
04:35 1016 30 845 24.95 3.1 37.6 60 -4 24.8
04:40 1016 30 845 24.95 3.1 37.5 60 -4.1 24.7
04:45 1016 30 845 24.95 3.1 37.6 60 -3.9 24.9
04:50 1015 29.97 845 24.95 3.3 37.9 59 -4 24.8
04:55 1015 29.97 845 24.95 3.2 37.8 60 -3.8 25.1
05:00 1015 29.97 845 24.95 3.1 37.6 60 -3.9 25
05:05 1015 29.97 844 24.92 3.3 37.9 59 -4 24.8
05:10 1015 29.97 844 24.92 3.5 38.3 58 -3.9 24.9
05:15 1015 29.97 844 24.92 3.6 38.5 57 -4 24.8
05:20 1015 29.97 844 24.92 3.7 38.7 58 -3.7 25.4
05:25 1015 29.97 844 24.92 3.7 38.6 58 -3.7 25.3
05:30 1015 29.97 844 24.92 3.8 38.9 57 -3.8 25.2
05:35 1015 29.97 844 24.92 4.1 39.5 57 -3.6 25.4
05:40 1015 29.97 844 24.92 4.4 39.9 56 -3.6 25.4
05:45 1015 29.97 844 24.92 4.9 40.7 55 -3.5 25.7
05:50 1015 29.97 844 24.92 5.3 41.6 53 -3.5 25.6
05:55 1015 29.97 844 24.92 5.3 41.6 54 -3.2 26.3
06:00 1015 29.97 844 24.92 5.1 41.3 54 -3.4 26
06:05 1015 29.97 844 24.92 5.1 41.2 54 -3.4 25.9
06:10 1014 29.94 844 24.92 5.2 41.3 54 -3.3 26
06:15 1014 29.94 844 24.92 5.1 41.2 55 -3.2 26.2
06:20 1014 29.94 844 24.92 5.3 41.5 55 -3.1 26.4
06:25 1014 29.94 844 24.92 5.5 41.9 55 -2.7 27.1
06:30 1014 29.94 844 24.92 5.6 42.1 54 -3 26.6
06:35 1014 29.94 844 24.92 5.6 42.2 56 -2.5 27.6
06:40 1014 29.94 843 24.89 6.1 42.9 55 -2.2 28
06:45 1014 29.94 843 24.89 6.1 42.9 55 -2.3 27.8
06:50 1014 29.94 843 24.89 6 42.8 56 -2.2 28.1
06:55 1014 29.94 843 24.89 6.3 43.3 55 -2.2 28.1
07:00 1014 29.94 843 24.89 6.2 43.2 55 -2.2 28.1
07:05 1014 29.94 843 24.89 6.2 43.1 55 -2.1 28.2
07:10 1014 29.94 843 24.89 6.3 43.3 54 -2.3 27.9
07:15 1014 29.94 843 24.89 6.6 43.9 54 -2.1 28.3
07:20 1014 29.94 843 24.89 6.8 44.3 54 -1.9 28.5
07:25 1014 29.94 843 24.89 7.4 45.2 52 -1.9 28.6
07:30 1014 29.94 843 24.89 7.7 45.8 51 -1.9 28.6
07:35 1014 29.94 843 24.89 7.7 45.9 51 -1.7 28.9
07:40 1014 29.94 843 24.89 7.8 46 50 -2 28.4
07:45 1014 29.94 843 24.89 8 46.4 50 -1.9 28.6
07:50 1014 29.94 843 24.89 8.1 46.6 49 -2 28.5
07:55 1014 29.94 843 24.89 8.3 47 49 -1.8 28.8
08:00 1014 29.94 843 24.89 8.3 46.9 49 -1.7 28.9
08:05 1014 29.94 843 24.89 8.2 46.8 49 -1.7 28.9
08:10 1014 29.94 843 24.89 8.1 46.5 50 -1.6 29.1
08:15 1014 29.94 843 24.89 7.9 46.2 51 -1.7 29
08:20 1014 29.94 843 24.89 7.8 46 51 -1.7 29
08:25 1014 29.94 843 24.89 7.7 45.9 51 -1.7 28.9
08:30 1014 29.94 843 24.89 7.6 45.7 52 -1.6 29.1
08:35 1014 29.94 843 24.89 7.5 45.5 52 -1.7 28.9
08:40 1014 29.94 843 24.89 7.8 46 50 -1.9 28.6
08:45 1014 29.94 843 24.89 7.9 46.2 51 -1.6 29
08:50 1014 29.94 843 24.89 7.8 46 51 -1.8 28.8
08:55 1014 29.94 843 24.89 7.9 46.2 51 -1.7 29
09:00 1014 29.94 843 24.89 8.2 46.7 48 -2.1 28.2
09:05 1014 29.94 844 24.92 8.5 47.3 49 -1.7 29
09:10 1014 29.94 844 24.92 8.3 46.9 49 -1.8 28.8
09:15 1014 29.94 844 24.92 8.3 47 49 -1.8 28.7
09:20 1014 29.94 844 24.92 8.6 47.4 48 -1.8 28.8
09:25 1014 29.94 844 24.92 8.6 47.5 48 -1.9 28.6
09:30 1014 29.94 844 24.92 9 48.2 46 -2.1 28.2
09:35 1015 29.97 844 24.92 9.1 48.3 46 -1.8 28.8
09:40 1015 29.97 844 24.92 9.1 48.3 46 -2 28.3
09:45 1015 29.97 844 24.92 9.1 48.4 45 -2.1 28.2
09:50 1015 29.97 844 24.92 9.4 48.9 45 -1.9 28.6
09:55 1015 29.97 844 24.92 9.3 48.7 45 -1.9 28.5
10:00 1015 29.97 844 24.92 9.1 48.4 46 -2 28.4
10:05 1015 29.97 844 24.92 9 48.1 46 -1.9 28.5
10:10 1015 29.97 844 24.92 9.1 48.4 46 -2 28.4
10:15 1015 29.97 844 24.92 9.1 48.4 45 -2 28.3
10:20 1015 29.97 844 24.92 9.1 48.3 46 -1.8 28.7
10:25 1015 29.97 844 24.92 9 48.2 46 -2 28.4
10:30 1015 29.97 844 24.92 8.9 48.1 46 -1.9 28.6
10:35 1015 29.97 844 24.92 8.9 47.9 46 -2 28.3
10:40 1015 29.97 844 24.92 8.9 48 46 -2 28.4
10:45 1015 29.97 844 24.92 8.9 48.1 45 -2.3 27.9
10:50 1015 29.97 844 24.92 9.2 48.5 45 -2.1 28.2
10:55 1015 29.97 844 24.92 9.2 48.5 45 -2.1 28.3
11:00 1015 29.97 844 24.92 9.1 48.3 45 -2.1 28.2
11:05 1015 29.97 844 24.92 9 48.2 46 -1.9 28.6
11:10 1015 29.97 844 24.92 8.9 47.9 46 -2 28.4
11:15 1015 29.97 844 24.92 8.9 48 47 -1.8 28.7
11:20 1015 29.97 844 24.92 8.7 47.7 47 -1.8 28.7
11:25 1015 29.97 844 24.92 8.8 47.8 47 -1.9 28.6
11:30 1015 29.97 844 24.92 9 48.1 46 -1.9 28.6
11:35 1015 29.97 844 24.92 9.1 48.5 46 -1.8 28.7
11:40 1015 29.97 844 24.92 9.1 48.5 46 -1.7 28.9
11:45 1015 29.97 844 24.92 9.1 48.5 46 -1.8 28.8
11:50 1015 29.97 844 24.92 9.1 48.3 47 -1.5 29.3
11:55 1015 29.97 844 24.92 8.9 48 48 -1.5 29.4
12:00 1015 29.97 844 24.92 8.7 47.7 48 -1.5 29.2
12:05 1015 29.97 844 24.92 8.7 47.6 49 -1.4 29.5
12:10 1015 29.97 844 24.92 8.6 47.4 48 -1.9 28.6
12:15 1015 29.97 844 24.92 8.9 48 45 -2.3 27.9
12:20 1015 29.97 844 24.92 9.1 48.4 45 -2.3 27.8
12:25 1015 29.97 844 24.92 9.2 48.5 44 -2.4 27.8
12:30 1015 29.97 844 24.92 9.3 48.7 44 -2.5 27.6
12:35 1014 29.94 844 24.92 9.7 49.5 40 -3.1 26.4
12:40 1014 29.94 843 24.89 10.2 50.3 39 -3.2 26.3
12:45 1014 29.94 843 24.89 10.3 50.6 41 -2.5 27.6
12:50 1014 29.94 843 24.89 10 49.9 42 -2.3 27.8
12:55 1014 29.94 843 24.89 9.9 49.8 42 -2.5 27.5
13:00 1014 29.94 843 24.89 9.8 49.6 43 -2.3 27.9
13:05 1014 29.94 843 24.89 9.9 49.7 41 -2.8 26.9
13:10 1014 29.94 843 24.89 10 49.9 42 -2.4 27.6
13:15 1014 29.94 843 24.89 10.1 50.2 42 -2.4 27.7
13:20 1014 29.94 843 24.89 10.2 50.3 41 -2.6 27.4
13:25 1014 29.94 843 24.89 10.4 50.7 40 -2.6 27.4
13:30 1014 29.94 843 24.89 10.5 51 38 -3.1 26.5
13:35 1014 29.94 843 24.89 10.9 51.6 37 -3.3 26.1
13:40 1014 29.94 843 24.89 11.1 51.9 37 -3.2 26.3
13:45 1014 29.94 843 24.89 11.2 52.1 37 -3 26.6
13:50 1014 29.94 843 24.89 11.3 52.3 36 -3.2 26.3
13:55 1014 29.94 843 24.89 11.3 52.3 37 -3 26.6
14:00 1014 29.94 843 24.89 11.5 52.6 37 -2.8 27
14:05 1014 29.94 843 24.89 11.3 52.4 35 -3.4 25.9
14:10 1014 29.94 843 24.89 11.5 52.7 35 -3.4 26
14:15 1014 29.94 843 24.89 11.4 52.6 35 -3.5 25.8
14:20 1014 29.94 843 24.89 11.4 52.4 35 -3.4 25.9
14:25 1014 29.94 843 24.89 11.4 52.5 35 -3.4 25.9
14:30 1014 29.94 843 24.89 11.2 52.2 36 -3.3 26.1
14:35 1014 29.94 843 24.89 11.2 52.2 36 -3.3 26.1
14:40 1014 29.94 843 24.89 11.2 52.1 35 -3.5 25.7
14:45 1014 29.94 843 24.89 11.2 52.1 35 -3.8 25.2
14:50 1014 29.94 843 24.89 11.1 51.9 35 -3.8 25.2
14:55 1014 29.94 843 24.89 11 51.8 35 -3.9 25
15:00 1014 29.94 843 24.89 11 51.7 37 -3.3 26.1
15:05 1014 29.94 843 24.89 10.8 51.5 36 -3.7 25.4
15:10 1014 29.94 843 24.89 10.9 51.6 36 -3.4 25.9
15:15 1014 29.94 843 24.89 10.7 51.3 38 -2.9 26.7
15:20 1014 29.94 843 24.89 10.6 51 39 -2.9 26.8
15:25 1014 29.94 843 24.89 10.8 51.5 39 -2.6 27.3
15:30 1014 29.94 843 24.89 10.8 51.4 39 -2.6 27.2
15:35 1014 29.94 843 24.89 11 51.7 38 -2.8 27
15:40 1014 29.94 843 24.89 11 51.8 39 -2.6 27.4
15:45 1014 29.94 844 24.92 10.7 51.3 48 0.1 32.2
15:50 1015 29.97 844 24.92 8.7 47.6 58 0.9 33.7
15:55 1015 29.97 844 24.92 7.1 44.7 64 0.7 33.3
16:00 1015 29.97 844 24.92 6.1 43 68 0.8 33.4
16:05 1015 29.97 844 24.92 5.6 42.1 70 0.6 33.1
16:10 1015 29.97 844 24.92 5.1 41.2 73 0.6 33.1
16:15 1015 29.97 844 24.92 5 41 75 0.9 33.6
16:20 1015 29.97 844 24.92 5 41 75 1 33.7
16:25 1015 29.97 844 24.92 5 40.9 75 0.9 33.6
16:30 1015 29.97 845 24.95 4.8 40.7 76 0.9 33.7
16:35 1015 29.97 845 24.95 4.7 40.5 76 0.8 33.5
16:40 1016 30 845 24.95 4.7 40.5 75 0.8 33.4
16:45 1016 30 845 24.95 4.7 40.4 75 0.6 33.1
16:50 1016 30 845 24.95 4.7 40.4 75 0.7 33.2
16:55 1016 30 845 24.95 4.7 40.4 76 0.8 33.4
17:00 1016 30 845 24.95 4.6 40.2 77 0.8 33.5
17:05 1016 30 845 24.95 4.4 39.9 77 0.8 33.5
17:10 1016 30 845 24.95 4.3 39.7 77 0.7 33.3
17:15 1016 30 845 24.95 4.4 40 76 0.6 33.1
17:20 1016 30 846 24.98 4.6 40.2 76 0.7 33.3
17:25 1016 30 846 24.98 4.6 40.3 75 0.6 33.1
17:30 1016 30 846 24.98 4.7 40.4 75 0.6 33.1
17:35 1016 30 846 24.98 4.6 40.2 74 0.4 32.7
17:40 1016 30 846 24.98 4.6 40.3 74 0.4 32.7
17:45 1017 30.03 846 24.98 4.8 40.7 72 0.1 32.2
17:50 1017 30.03 846 24.98 4.7 40.4 73 0.3 32.5
17:55 1017 30.03 846 24.98 4.5 40 73 0 32
18:00 1017 30.03 846 24.98 4.4 40 74 0.2 32.4
18:05 1017 30.03 846 24.98 4.4 39.9 74 0.1 32.1
18:10 1017 30.03 846 24.98 4.4 39.9 74 0.1 32.2
18:15 1017 30.03 846 24.98 4.4 40 72 -0.1 31.8
18:20 1017 30.03 846 24.98 4.4 39.9 73 0 32
18:25 1017 30.03 846 24.98 4.4 39.9 73 -0 32
18:30 1017 30.03 846 24.98 4.5 40 72 -0.2 31.7
18:35 1017 30.03 846 24.98 4.6 40.3 72 -0.1 31.9
18:40 1017 30.03 846 24.98 4.7 40.4 71 -0.2 31.6
18:45 1017 30.03 846 24.98 4.7 40.5 70 -0.2 31.6
18:50 1017 30.03 846 24.98 4.7 40.4 70 -0.3 31.4
18:55 1017 30.03 846 24.98 4.7 40.4 71 -0.2 31.6
19:00 1017 30.03 846 24.98 4.6 40.3 71 -0.1 31.8
19:05 1017 30.03 846 24.98 4.7 40.4 71 -0.1 31.8
19:10 1017 30.03 846 24.98 4.7 40.4 71 -0.2 31.7
19:15 1017 30.03 846 24.98 4.7 40.4 71 -0.2 31.6
19:20 1017 30.03 846 24.98 4.7 40.4 70 -0.3 31.5
19:25 1017 30.03 846 24.98 4.7 40.5 70 -0.2 31.6
19:30 1017 30.03 846 24.98 4.7 40.4 71 -0.1 31.9
19:35 1017 30.03 847 25.01 4.4 39.9 73 -0 31.9
19:40 1017 30.03 847 25.01 4.2 39.6 71 -0.6 30.9
19:45 1017 30.03 847 25.01 4.4 39.9 70 -0.5 31.1
19:50 1018 30.06 847 25.01 4.3 39.8 71 -0.5 31
19:55 1017 30.03 847 25.01 4.4 39.9 68 -0.9 30.4
20:00 1017 30.03 847 25.01 4.5 40.1 68 -0.9 30.3
20:05 1017 30.03 847 25.01 4.5 40.1 67 -1.1 29.9
20:10 1017 30.03 847 25.01 4.4 40 68 -1 30.2
20:15 1017 30.03 847 25.01 4.4 39.8 68 -1.1 30.1
20:20 1017 30.03 847 25.01 4.3 39.8 68 -1.1 30
20:25 1017 30.03 847 25.01 4.2 39.6 68 -1.1 30.1
20:30 1017 30.03 847 25.01 4.2 39.6 68 -1.2 29.8
20:35 1017 30.03 847 25.01 4.1 39.5 67 -1.4 29.5
20:40 1017 30.03 847 25.01 4.1 39.4 67 -1.4 29.5
20:45 1018 30.06 847 25.01 4.1 39.3 66 -1.8 28.8
20:50 1018 30.06 847 25.01 4.1 39.4 66 -1.7 28.9
20:55 1018 30.06 847 25.01 4 39.1 68 -1.3 29.6
21:00 1018 30.06 847 25.01 3.6 38.4 67 -2 28.5
21:05 1018 30.06 847 25.01 3.7 38.6 66 -2.1 28.2
21:10 1018 30.06 847 25.01 3.7 38.6 64 -2.6 27.4
21:15 1018 30.06 847 25.01 3.8 38.9 61 -3 26.7
21:20 1018 30.06 847 25.01 4 39.1 62 -2.6 27.4
21:25 1018 30.06 847 25.01 3.9 38.9 62 -2.7 27.1
21:30 1018 30.06 847 25.01 3.7 38.7 59 -3.5 25.7
21:35 1018 30.06 847 25.01 3.8 38.9 58 -3.6 25.5
21:40 1018 30.06 847 25.01 3.8 38.9 60 -3.3 26.1
21:45 1018 30.06 847 25.01 3.7 38.7 60 -3.4 25.8
21:50 1018 30.06 847 25.01 3.7 38.6 57 -4 24.7
21:55 1018 30.06 847 25.01 3.6 38.5 56 -4.2 24.4
22:00 1018 30.06 847 25.01 3.6 38.5 57 -4.1 24.5
22:05 1018 30.06 847 25.01 3.5 38.4 58 -4 24.9
22:10 1018 30.06 847 25.01 3.5 38.3 59 -3.9 25
22:15 1018 30.06 847 25.01 3.4 38.1 58 -4.2 24.5
22:20 1018 30.06 847 25.01 3.5 38.2 55 -4.7 23.5
22:25 1018 30.06 847 25.01 3.6 38.4 56 -4.5 23.9
22:30 1018 30.06 847 25.01 3.6 38.5 55 -4.6 23.7
22:35 1018 30.06 847 25.01 3.6 38.6 57 -4.2 24.5
22:40 1018 30.06 847 25.01 3.5 38.2 57 -4.2 24.4
22:45 1018 30.06 847 25.01 3.3 38 55 -4.7 23.5
22:50 1018 30.06 847 25.01 3.4 38.1 54 -5 23
22:55 1018 30.06 847 25.01 3.3 38 55 -4.9 23.2
23:00 1018 30.06 847 25.01 3.2 37.7 55 -5 23
23:05 1018 30.06 847 25.01 3.2 37.7 54 -5.4 22.4
23:10 1018 30.06 848 25.04 3.2 37.8 53 -5.3 22.4
23:15 1018 30.06 847 25.01 3.2 37.8 53 -5.4 22.2
23:20 1018 30.06 848 25.04 3.2 37.7 51 -6.1 21
23:25 1018 30.06 848 25.04 3.4 38.1 47 -6.9 19.6
23:30 1018 30.06 848 25.04 3.6 38.4 49 -6.2 20.8
23:35 1018 30.06 848 25.04 3.6 38.5 46 -7 19.4
23:40 1018 30.06 848 25.04 3.6 38.5 47 -6.7 19.9
23:45 1018 30.06 848 25.04 3.5 38.4 48 -6.5 20.4
23:50 1019 30.09 848 25.04 3.5 38.3 48 -6.6 20.1
23:55 1019 30.09 848 25.04 3.5 38.3 47 -6.8 19.8
24:00 1019 30.09 848 25.04 3.6 38.4 46 -6.9 19.6